Time;durP1;ratioP1;P1;durP2;ratioP2;P2;SDS_P1;SDS_P2;PMS_P1;PMS_P2;Temp;Humidity;BMP_temperature;BMP_pressure;BME280_temperature;BME280_humidity;BME280_pressure;Samples;Min_cycle;Max_cycle;Signal;HPM_P1;HPM_P2
2022/06/07 00:00:31;;;;;;;4.35;3.63;;;;;;;24.20;42.95;101085.78;4995888;28;20046;-81
2022/06/07 00:02:57;;;;;;;4.00;3.15;;;;;;;24.30;42.76;101098.75;4988645;28;20049;-81
2022/06/07 00:05:23;;;;;;;4.60;2.95;;;;;;;24.18;42.68;101071.88;5004840;28;20050;-81
2022/06/07 00:07:49;;;;;;;4.15;3.42;;;;;;;24.24;42.80;101094.22;4999826;28;20091;-81
2022/06/07 00:10:15;;;;;;;4.13;3.00;;;;;;;24.26;42.88;101081.50;5000469;28;20435;-81
2022/06/07 00:12:40;;;;;;;5.40;3.42;;;;;;;24.25;42.84;101086.03;4999651;28;20037;-81
2022/06/07 00:15:06;;;;;;;4.63;3.28;;;;;;;24.13;42.80;101069.00;4998737;28;20050;-82
2022/06/07 00:17:32;;;;;;;5.57;3.00;;;;;;;24.17;42.99;101077.38;4986087;28;20045;-81
2022/06/07 00:19:57;;;;;;;5.10;3.33;;;;;;;24.22;42.84;101072.28;4964889;28;20050;-81
2022/06/07 00:22:23;;;;;;;5.20;3.47;;;;;;;24.12;43.05;101064.69;5000386;28;20099;-81
2022/06/07 00:24:49;;;;;;;6.45;3.90;;;;;;;24.19;42.93;101070.84;5002119;28;20526;-81
2022/06/07 00:27:15;;;;;;;4.30;3.08;;;;;;;24.18;43.00;101071.03;4983001;28;20034;-81
2022/06/07 00:29:43;;;;;;;4.50;3.50;;;;;;;24.03;42.78;101047.28;5000612;28;20061;-82
2022/06/07 00:32:09;;;;;;;6.40;3.90;;;;;;;24.16;43.06;101065.94;4958139;28;20050;-81
2022/06/07 00:34:34;;;;;;;4.18;3.45;;;;;;;24.07;42.93;101045.88;5006122;28;20049;-81
2022/06/07 00:37:00;;;;;;;3.83;3.17;;;;;;;24.14;43.06;101067.97;4969699;28;20033;-81
2022/06/07 00:39:26;;;;;;;3.92;3.33;;;;;;;24.12;43.00;101067.38;4977660;28;20059;-80
2022/06/07 00:41:52;;;;;;;4.78;3.38;;;;;;;23.97;42.97;101034.78;4976827;28;20035;-83
2022/06/07 00:44:30;;;;;;;3.80;3.28;;;;;;;24.11;43.08;101058.56;4974137;28;20100;-83
2022/06/07 00:46:55;;;;;;;3.45;3.05;;;;;;;24.10;42.94;101050.78;4958649;28;20605;-82
2022/06/07 00:49:22;;;;;;;5.68;3.20;;;;;;;24.05;42.84;101040.72;4948404;28;20068;-82
2022/06/07 00:51:48;;;;;;;3.90;3.28;;;;;;;23.97;42.94;101037.47;4963334;28;20596;-82
2022/06/07 00:54:29;;;;;;;5.53;3.60;;;;;;;24.06;43.08;101047.72;4975749;28;20038;-81
2022/06/07 00:57:02;;;;;;;5.60;3.63;;;;;;;24.07;43.00;101048.53;4978914;28;20027;-82
2022/06/07 00:59:32;;;;;;;4.63;3.28;;;;;;;24.06;42.95;101046.91;4972913;28;20039;-82
2022/06/07 01:01:58;;;;;;;4.38;3.30;;;;;;;23.95;42.89;101035.00;4946297;28;20388;-82
2022/06/07 01:04:27;;;;;;;3.80;3.30;;;;;;;24.01;43.14;101044.81;4964672;28;20039;-82
2022/06/07 01:12:31;;;;;;;4.55;3.47;;;;;;;24.02;42.96;101037.66;4972806;28;20054;-81
2022/06/07 01:14:58;;;;;;;6.93;3.30;;;;;;;23.92;43.05;101024.78;4976654;28;20042;-82
2022/06/07 01:17:25;;;;;;;4.80;3.60;;;;;;;23.88;43.00;101018.22;4944643;28;20033;-82
2022/06/07 01:19:52;;;;;;;4.50;3.42;;;;;;;23.99;43.00;101028.25;4963893;28;20042;-82
2022/06/07 01:22:18;;;;;;;5.47;3.58;;;;;;;23.84;42.88;101005.50;4958808;28;20401;-82
2022/06/07 01:24:45;;;;;;;6.15;3.42;;;;;;;23.97;43.06;101030.28;4975951;28;20039;-82
2022/06/07 01:27:11;;;;;;;5.78;3.88;;;;;;;23.90;43.19;101021.50;4959154;28;20042;-82
2022/06/07 01:29:38;;;;;;;5.65;3.80;;;;;;;23.94;43.09;101012.09;4974958;28;20054;-82
2022/06/07 01:32:05;;;;;;;4.00;3.13;;;;;;;23.93;43.09;101006.97;4956156;28;20073;-82
2022/06/07 01:34:31;;;;;;;3.75;3.20;;;;;;;23.93;43.15;101013.13;4967820;28;20053;-82
2022/06/07 01:36:58;;;;;;;4.53;3.30;;;;;;;23.87;43.29;100995.28;4962899;28;20042;-81
2022/06/07 01:42:13;;;;;;;3.92;3.20;;;;;;;23.91;43.14;101009.84;4991889;28;20438;-82
2022/06/07 01:44:44;;;;;;;4.03;3.17;;;;;;;23.90;42.85;101010.84;4980794;28;20648;-82
2022/06/07 01:47:18;;;;;;;4.80;3.80;;;;;;;23.90;43.11;101010.03;4994760;28;20034;-82
2022/06/07 01:49:49;;;;;;;5.78;3.47;;;;;;;23.86;43.13;100998.16;4998155;28;20759;-81
2022/06/07 01:52:17;;;;;;;3.97;3.30;;;;;;;23.77;43.13;100987.72;4978544;28;20042;-82
2022/06/07 01:54:46;;;;;;;3.88;3.05;;;;;;;23.88;43.41;101004.94;4993265;28;20038;-82
2022/06/07 01:57:12;;;;;;;4.32;3.50;;;;;;;23.85;43.21;101002.66;4978464;28;20084;-82
2022/06/07 01:59:41;;;;;;;4.38;3.08;;;;;;;23.78;43.03;100985.88;4996724;28;20825;-82
2022/06/07 02:02:14;;;;;;;4.90;3.35;;;;;;;23.85;43.42;100997.31;4982371;28;21859;-82
2022/06/07 02:04:41;;;;;;;5.93;3.40;;;;;;;23.73;43.43;100972.38;4981225;28;20056;-80
2022/06/07 02:07:09;;;;;;;5.00;3.25;;;;;;;23.83;43.24;100982.59;4997803;28;20133;-81
2022/06/07 02:09:36;;;;;;;3.85;3.42;;;;;;;23.84;43.04;100986.91;4948789;28;20042;-82
2022/06/07 02:12:03;;;;;;;4.20;3.80;;;;;;;23.75;43.17;100976.47;4993381;28;20034;-82
2022/06/07 02:14:30;;;;;;;4.15;2.97;;;;;;;23.72;43.28;100970.75;4983729;28;20778;-82
2022/06/07 02:16:56;;;;;;;4.88;3.42;;;;;;;23.79;43.22;100971.56;4994894;28;20595;-82
2022/06/07 02:19:28;;;;;;;5.03;3.35;;;;;;;23.68;43.21;100946.38;4979672;28;20081;-82
2022/06/07 02:21:54;;;;;;;3.95;3.05;;;;;;;23.72;43.15;100960.91;4979441;28;20087;-82
2022/06/07 02:24:20;;;;;;;3.95;3.47;;;;;;;23.71;43.33;100969.09;4977504;28;20556;-82
2022/06/07 02:26:52;;;;;;;4.10;2.90;;;;;;;23.75;43.38;100967.66;4979218;28;20038;-81
2022/06/07 02:29:22;;;;;;;4.18;3.72;;;;;;;23.70;43.15;100952.31;4981605;28;20567;-82
2022/06/07 02:31:53;;;;;;;4.20;3.10;;;;;;;23.76;43.06;100961.31;4979386;28;20033;-80
2022/06/07 02:34:20;;;;;;;5.65;3.17;;;;;;;23.75;43.28;100965.00;4970575;28;20049;-81
2022/06/07 02:36:50;;;;;;;3.75;3.28;;;;;;;23.64;43.55;100947.81;4981548;28;20026;-81
2022/06/07 02:39:17;;;;;;;4.50;3.13;;;;;;;23.62;43.20;100944.53;4992043;28;20089;-81
2022/06/07 02:41:45;;;;;;;5.18;3.60;;;;;;;23.74;43.27;100958.06;4994541;28;20046;-81
2022/06/07 02:44:11;;;;;;;3.65;3.13;;;;;;;23.71;43.17;100951.31;4979719;28;20014;-81
2022/06/07 02:46:36;;;;;;;3.83;3.15;;;;;;;23.71;43.02;100950.50;4975973;28;20041;-82
2022/06/07 02:49:03;;;;;;;3.88;3.15;;;;;;;23.60;43.19;100937.78;4961664;28;20042;-81
2022/06/07 02:51:30;;;;;;;6.38;3.45;;;;;;;23.71;43.30;100953.16;4989027;28;20034;-82
2022/06/07 02:53:56;;;;;;;4.85;3.65;;;;;;;23.70;43.23;100954.16;4974753;28;20412;-81
2022/06/07 02:56:24;;;;;;;3.70;2.95;;;;;;;23.70;43.32;100951.50;4977705;28;20066;-81
2022/06/07 02:58:49;;;;;;;4.90;3.60;;;;;;;23.64;43.33;100944.31;4994324;28;20856;-81
2022/06/07 03:01:16;;;;;;;4.25;3.25;;;;;;;23.62;43.32;100938.38;4990780;28;20836;-81
2022/06/07 03:03:44;;;;;;;4.15;3.33;;;;;;;23.67;43.42;100947.38;4977364;28;20540;-81
2022/06/07 03:06:12;;;;;;;4.07;3.40;;;;;;;23.67;43.43;100949.22;4994541;28;20046;-81
2022/06/07 03:08:38;;;;;;;3.75;3.17;;;;;;;23.64;43.25;100929.19;4980277;28;20038;-81
2022/06/07 03:11:05;;;;;;;3.95;3.10;;;;;;;23.64;43.29;100933.69;4988674;28;20986;-82
2022/06/07 03:13:33;;;;;;;3.50;3.20;;;;;;;23.52;43.30;100914.84;4994341;28;20046;-82
2022/06/07 03:16:01;;;;;;;4.00;3.20;;;;;;;23.64;43.31;100937.16;4991675;28;20036;-81
2022/06/07 03:18:27;;;;;;;5.32;3.65;;;;;;;23.63;43.31;100943.50;4991618;28;20042;-81
2022/06/07 03:20:53;;;;;;;4.63;3.50;;;;;;;23.63;43.19;100938.19;4980727;28;20042;-82
2022/06/07 03:23:22;;;;;;;4.35;3.72;;;;;;;23.64;43.25;100934.50;4956533;28;20045;-81
2022/06/07 03:26:05;;;;;;;4.85;3.42;;;;;;;23.60;43.10;100933.28;4973166;28;20042;-81
2022/06/07 03:28:33;;;;;;;4.80;3.20;;;;;;;23.63;43.34;100937.38;4993869;28;20044;-80
2022/06/07 03:31:07;;;;;;;6.38;3.75;;;;;;;23.60;43.37;100937.78;4971563;28;20038;-81
2022/06/07 03:33:36;;;;;;;4.55;3.60;;;;;;;23.56;43.42;100925.88;4991964;28;20037;-82
2022/06/07 03:36:05;;;;;;;4.72;3.45;;;;;;;23.60;43.16;100938.59;4969763;28;20042;-81
2022/06/07 03:38:34;;;;;;;4.10;3.08;;;;;;;23.60;43.26;100935.13;4996223;28;20045;-81
2022/06/07 03:40:59;;;;;;;4.88;3.30;;;;;;;23.60;43.11;100932.47;4995489;28;20037;-81
2022/06/07 03:43:27;;;;;;;3.97;3.13;;;;;;;23.59;43.10;100936.97;4996953;28;20523;-81
2022/06/07 03:45:53;;;;;;;4.90;3.60;;;;;;;23.57;43.23;100936.34;4995671;28;20093;-82
2022/06/07 03:48:19;;;;;;;3.70;3.10;;;;;;;23.58;43.17;100937.97;4997081;28;20129;-81
2022/06/07 03:50:48;;;;;;;3.72;2.92;;;;;;;23.58;43.33;100939.81;4948974;28;20037;-81
2022/06/07 03:53:14;;;;;;;6.05;3.40;;;;;;;23.28;43.27;100886.16;4994193;28;20102;-81
2022/06/07 03:55:47;;;;;;;4.00;3.35;;;;;;;23.53;43.22;100924.47;4979785;28;20042;-81
2022/06/07 03:58:15;;;;;;;7.28;3.80;;;;;;;23.56;43.32;100937.34;4996377;28;20065;-81
2022/06/07 04:00:41;;;;;;;4.45;3.67;;;;;;;23.40;43.30;100913.78;4974051;28;20148;-80
2022/06/07 04:03:08;;;;;;;5.43;3.50;;;;;;;23.52;43.41;100917.50;4992528;28;20499;-80
2022/06/07 04:05:39;;;;;;;4.82;3.45;;;;;;;23.52;43.45;100920.97;4970815;28;20103;-80
2022/06/07 04:08:12;;;;;;;4.18;3.15;;;;;;;23.52;43.24;100928.13;5000568;28;20034;-80
2022/06/07 04:10:58;;;;;;;5.00;3.35;;;;;;;23.48;43.13;100921.56;4995475;28;20144;-81
2022/06/07 04:13:31;;;;;;;5.20;3.42;;;;;;;23.43;43.39;100913.38;4992948;28;20301;-81
2022/06/07 04:16:04;;;;;;;;;;;;;;;23.50;43.56;100930.97;4961702;28;20042;-80
2022/06/07 04:18:30;;;;;;;4.25;3.58;;;;;;;23.35;43.34;100914.41;4995690;28;20389;-81
2022/06/07 04:21:00;;;;;;;5.78;3.50;;;;;;;23.51;43.46;100945.06;4968946;28;20046;-81
2022/06/07 04:23:28;;;;;;;4.57;3.63;;;;;;;23.51;43.36;100945.06;4961653;28;20046;-81
2022/06/07 04:25:54;;;;;;;5.75;3.70;;;;;;;23.50;43.31;100946.09;4990627;28;20068;-80
2022/06/07 04:28:20;;;;;;;4.25;3.50;;;;;;;23.48;43.31;100937.50;5001062;28;20046;-81
2022/06/07 04:30:49;;;;;;;4.68;3.65;;;;;;;23.50;43.28;100946.91;4992214;28;20030;-81
2022/06/07 04:33:19;;;;;;;5.47;3.70;;;;;;;23.28;43.30;100912.72;4974912;28;20128;-81
2022/06/07 04:35:48;;;;;;;4.93;3.55;;;;;;;23.34;43.32;100927.84;4971681;28;20048;-81
2022/06/07 04:38:18;;;;;;;4.50;3.47;;;;;;;23.40;43.36;100937.72;4997322;28;20116;-80
2022/06/07 04:40:44;;;;;;;4.00;3.53;;;;;;;23.45;43.50;100954.69;4994321;28;20045;-81
2022/06/07 04:43:12;;;;;;;4.63;3.75;;;;;;;23.46;43.39;100960.81;4968013;28;20266;-80
2022/06/07 04:45:39;;;;;;;3.88;3.47;;;;;;;23.44;43.23;100955.69;4990305;28;20468;-81
2022/06/07 04:48:09;;;;;;;5.07;3.75;;;;;;;23.40;43.52;100951.81;4997332;28;20133;-81
2022/06/07 04:50:43;;;;;;;5.63;3.80;;;;;;;23.35;43.16;100948.94;4986010;28;20357;-81
2022/06/07 04:53:08;;;;;;;4.00;3.35;;;;;;;23.45;43.39;100953.88;4964456;28;20026;-81
2022/06/07 04:55:34;;;;;;;5.47;3.65;;;;;;;23.45;43.47;100953.88;4997712;28;20038;-80
2022/06/07 04:58:00;;;;;;;4.38;3.55;;;;;;;23.43;43.26;100956.72;4999010;28;20037;-80
2022/06/07 05:00:26;;;;;;;4.18;3.60;;;;;;;23.42;43.37;100956.94;4997960;28;20034;-81
2022/06/07 05:02:59;;;;;;;4.78;3.42;;;;;;;23.34;43.19;100943.81;4995136;28;20084;-80
2022/06/07 05:05:26;;;;;;;3.80;3.35;;;;;;;23.43;43.31;100953.25;4985333;28;20257;-79
2022/06/07 05:07:52;;;;;;;3.92;3.45;;;;;;;23.41;43.58;100953.44;5002769;28;20037;-80
2022/06/07 05:10:21;;;;;;;4.60;2.97;;;;;;;23.29;43.28;100936.44;4984681;28;20073;-80
2022/06/07 05:12:57;;;;;;;3.97;3.58;;;;;;;23.28;43.52;100942.78;4978274;28;20383;-80
2022/06/07 05:15:27;;;;;;;4.18;3.78;;;;;;;23.40;43.37;100958.97;4980725;28;20049;-81
2022/06/07 05:17:57;;;;;;;4.93;3.92;;;;;;;23.39;43.46;100958.16;4994085;28;20038;-80
2022/06/07 05:20:24;;;;;;;5.90;3.70;;;;;;;23.27;43.50;100946.44;4985012;28;20077;-80
2022/06/07 05:22:57;;;;;;;5.15;3.70;;;;;;;23.40;43.28;100970.41;4998320;28;21007;-80
2022/06/07 05:25:24;;;;;;;5.05;3.70;;;;;;;23.33;43.48;100969.56;4996265;28;20482;-80
2022/06/07 05:27:51;;;;;;;5.38;3.92;;;;;;;23.26;43.23;100946.66;4998307;28;20030;-80
2022/06/07 05:30:24;;;;;;;4.72;3.60;;;;;;;23.38;43.35;100984.94;4995532;28;20042;-81
2022/06/07 05:33:01;;;;;;;4.88;3.83;;;;;;;23.25;43.11;100967.09;4995997;28;20133;-80
2022/06/07 05:35:35;;;;;;;4.65;3.67;;;;;;;23.37;43.49;100985.94;4924464;28;20455;-80
2022/06/07 05:38:11;;;;;;;6.07;4.18;;;;;;;23.32;43.46;100973.22;4998355;28;20044;-80
2022/06/07 05:40:37;;;;;;;6.47;4.15;;;;;;;23.36;43.24;100979.81;4980493;28;20049;-80
2022/06/07 05:43:04;;;;;;;6.43;3.95;;;;;;;23.36;43.33;100976.34;4949708;28;20038;-80
2022/06/07 05:45:37;;;;;;;4.40;3.78;;;;;;;23.35;43.41;100964.88;4962696;28;20116;-80
2022/06/07 05:48:09;;;;;;;5.40;4.22;;;;;;;23.35;43.33;100988.81;4990468;28;20050;-80
2022/06/07 05:50:43;;;;;;;6.10;4.38;;;;;;;23.34;43.45;100971.22;4979437;28;20042;-81
2022/06/07 05:53:11;;;;;;;4.17;3.77;;;;;;;23.35;43.23;100978.19;4967463;28;20709;-81
2022/06/07 05:55:38;;;;;;;5.70;4.00;;;;;;;23.36;43.43;100986.97;4995661;28;20150;-80
2022/06/07 05:58:04;;;;;;;6.97;4.10;;;;;;;23.36;43.29;100977.16;4998559;28;20466;-80
2022/06/07 06:00:30;;;;;;;5.22;4.05;;;;;;;23.34;43.26;100979.19;4996810;28;20045;-80
2022/06/07 06:02:56;;;;;;;5.22;4.10;;;;;;;23.34;43.37;100983.66;4976537;28;20083;-81
2022/06/07 06:05:33;;;;;;;5.30;4.35;;;;;;;23.30;43.46;100979.78;4952696;28;20121;-80
2022/06/07 06:10:46;;;;;;;5.10;4.20;;;;;;;23.28;43.26;100979.97;4997767;28;20042;-80
2022/06/07 06:13:12;;;;;;;5.10;4.10;;;;;;;23.33;43.32;100987.34;4986484;28;20034;-80
2022/06/07 06:15:38;;;;;;;4.40;3.78;;;;;;;23.30;42.95;100991.22;4977817;28;20092;-80
2022/06/07 06:18:05;;;;;;;4.75;4.15;;;;;;;23.31;43.33;100998.16;4997393;28;20488;-80
2022/06/07 06:20:35;;;;;;;5.93;3.83;;;;;;;23.12;43.39;100975.81;4987304;28;20760;-81
2022/06/07 06:23:04;;;;;;;5.45;3.95;;;;;;;23.30;43.51;100988.56;4978056;28;20107;-80
2022/06/07 06:25:30;;;;;;;6.05;3.95;;;;;;;23.24;43.24;100993.84;4977381;28;20066;-80
2022/06/07 06:27:57;;;;;;;4.63;4.07;;;;;;;23.28;43.47;100995.91;4977651;28;20029;-80
2022/06/07 06:30:23;;;;;;;4.60;3.90;;;;;;;23.29;43.37;101002.03;4977121;28;20503;-80
2022/06/07 06:33:14;;;;;;;6.32;4.28;;;;;;;23.28;43.08;101000.41;4996057;28;20231;-80
2022/06/07 06:35:53;;;;;;;5.10;3.75;;;;;;;23.29;43.37;100996.72;4980640;28;20891;-80
2022/06/07 06:38:22;;;;;;;6.32;3.95;;;;;;;23.12;43.29;100975.81;4971641;28;20225;-80
2022/06/07 06:40:48;;;;;;;4.38;3.50;;;;;;;23.05;43.45;100974.16;4995483;28;20050;-80
2022/06/07 06:43:17;;;;;;;4.78;3.80;;;;;;;23.19;43.42;101005.91;4991056;28;20090;-81
2022/06/07 06:46:12;;;;;;;4.45;3.60;;;;;;;23.29;43.31;101013.50;4994402;28;20030;-80
2022/06/07 06:48:43;;;;;;;4.18;3.78;;;;;;;23.20;43.23;101007.53;4992347;28;20526;-80
2022/06/07 06:51:12;;;;;;;4.57;3.37;;;;;;;23.12;43.22;100999.72;4979170;28;20042;-81
2022/06/07 06:53:39;;;;;;;4.63;3.88;;;;;;;23.28;43.37;101026.97;4977136;28;21152;-80
2022/06/07 06:56:17;;;;;;;5.15;3.80;;;;;;;23.25;43.31;101033.50;4993495;28;20073;-80
2022/06/07 06:58:43;;;;;;;6.13;3.75;;;;;;;23.26;43.37;101037.00;4994984;28;20358;-80
2022/06/07 07:01:17;;;;;;;5.15;4.10;;;;;;;23.25;43.45;101038.00;4963821;28;20619;-80
2022/06/07 07:03:43;;;;;;;4.93;3.70;;;;;;;23.18;43.40;101036.16;4963274;28;20809;-81
2022/06/07 07:06:12;;;;;;;4.10;3.22;;;;;;;23.24;43.15;101047.00;4997658;28;20383;-81
2022/06/07 07:08:40;;;;;;;4.40;3.33;;;;;;;23.23;43.34;101048.00;4963704;28;20120;-80
2022/06/07 07:11:17;;;;;;;4.30;3.42;;;;;;;23.24;43.32;101049.66;4967510;28;20164;-80
2022/06/07 07:13:46;;;;;;;4.07;3.30;;;;;;;23.17;43.36;101033.69;4992410;28;20492;-81
2022/06/07 07:16:16;;;;;;;4.63;3.33;;;;;;;23.21;43.49;101043.72;5000376;28;20033;-80
2022/06/07 07:18:44;;;;;;;5.15;3.45;;;;;;;23.19;43.32;101043.09;4996676;28;20034;-80
2022/06/07 07:21:16;;;;;;;6.07;3.42;;;;;;;23.07;43.35;101020.75;4997521;28;20049;-80
2022/06/07 07:23:43;;;;;;;4.55;3.33;;;;;;;23.21;43.19;101048.22;4999722;28;20039;-80
2022/06/07 07:26:15;;;;;;;3.65;3.30;;;;;;;23.18;43.34;101046.78;4994534;28;20061;-80
2022/06/07 07:28:42;;;;;;;4.90;3.20;;;;;;;23.20;43.43;101043.91;4998151;28;20026;-80
2022/06/07 07:31:13;;;;;;;4.07;3.53;;;;;;;23.11;43.54;101032.63;4979074;28;20033;-79
2022/06/07 07:33:41;;;;;;;4.20;3.60;;;;;;;23.17;43.01;101045.13;4976422;28;20034;-78
2022/06/07 07:36:08;;;;;;;4.70;3.45;;;;;;;23.19;43.12;101047.59;4994762;28;20510;-78
2022/06/07 07:38:34;;;;;;;4.57;3.42;;;;;;;23.19;43.27;101061.69;4968702;28;20042;-78
2022/06/07 07:41:01;;;;;;;4.03;3.35;;;;;;;23.18;43.01;101049.44;5000019;28;21094;-78
2022/06/07 07:43:27;;;;;;;4.30;2.92;;;;;;;23.16;43.21;101054.13;4994488;28;20177;-79
2022/06/07 07:45:54;;;;;;;5.95;3.17;;;;;;;23.14;43.42;101053.47;4958586;28;20062;-79
2022/06/07 07:48:22;;;;;;;6.55;3.40;;;;;;;23.14;43.45;101053.47;4996086;28;20046;-79
2022/06/07 07:50:49;;;;;;;3.90;3.13;;;;;;;23.16;43.56;101050.63;4975994;28;20092;-79
2022/06/07 07:53:17;;;;;;;4.38;2.97;;;;;;;23.13;43.20;101048.34;4974098;28;20048;-79
2022/06/07 07:55:49;;;;;;;4.25;2.60;;;;;;;23.08;43.28;101053.44;4981065;28;20042;-78
2022/06/07 07:58:17;;;;;;;4.53;3.05;;;;;;;23.01;43.23;101037.47;4977785;28;20492;-80
2022/06/07 08:00:46;;;;;;;4.32;3.10;;;;;;;23.12;43.06;101046.72;4996447;28;20033;-79
2022/06/07 08:03:16;;;;;;;5.45;2.90;;;;;;;23.04;43.15;101046.88;4996893;28;20033;-79
2022/06/07 08:05:47;;;;;;;3.45;2.40;;;;;;;23.09;43.17;101045.28;4994445;28;20038;-79
2022/06/07 08:08:13;;;;;;;4.32;2.60;;;;;;;23.10;43.11;101052.22;4966317;28;20054;-79
2022/06/07 08:10:39;;;;;;;4.65;2.72;;;;;;;23.11;43.22;101061.84;4996849;28;20041;-78
2022/06/07 08:13:07;;;;;;;4.80;2.95;;;;;;;23.06;43.17;101061.63;4997604;28;20155;-79
2022/06/07 08:15:33;;;;;;;4.28;2.50;;;;;;;23.11;43.02;101061.03;4995383;28;20084;-79
2022/06/07 08:18:04;;;;;;;4.20;2.97;;;;;;;23.05;42.70;101059.16;4993219;28;20053;-79
2022/06/07 08:20:35;;;;;;;5.00;2.80;;;;;;;23.10;43.11;101073.47;4991609;28;20045;-78
2022/06/07 08:23:01;;;;;;;4.25;2.60;;;;;;;23.11;43.17;101071.63;4987581;28;20808;-78
2022/06/07 08:25:27;;;;;;;5.50;3.28;;;;;;;23.11;42.81;101076.97;5001108;28;20046;-79
2022/06/07 08:27:52;;;;;;;3.53;2.60;;;;;;;23.04;42.92;101068.13;4997189;28;20488;-78
2022/06/07 08:30:18;;;;;;;3.58;2.63;;;;;;;23.12;42.82;101073.28;5000021;28;20038;-79
2022/06/07 08:32:44;;;;;;;2.80;2.45;;;;;;;23.13;42.69;101074.91;5003714;28;20037;-79
2022/06/07 08:37:58;;;;;;;3.70;2.55;;;;;;;23.09;42.69;101081.66;4977022;28;20053;-79
2022/06/07 08:40:34;;;;;;;3.58;2.30;;;;;;;22.99;42.87;101051.97;5003279;28;20295;-79
2022/06/07 08:43:06;;;;;;;5.45;2.95;;;;;;;23.04;42.82;101070.78;4987364;28;21781;-79
2022/06/07 08:45:37;;;;;;;2.90;2.20;;;;;;;23.04;42.82;101068.13;4995648;28;20401;-79
2022/06/07 08:48:14;;;;;;;3.88;2.42;;;;;;;23.03;42.83;101069.16;4994677;28;20034;-79
2022/06/07 08:50:54;;;;;;;3.75;2.58;;;;;;;23.15;42.98;101086.97;4999117;28;20033;-79
2022/06/07 08:53:50;;;;;;;3.08;2.20;;;;;;;23.16;42.82;101083.34;4999086;28;20037;-79
2022/06/07 08:56:34;;;;;;;4.22;2.25;;;;;;;23.18;43.40;101086.63;4985460;28;20538;-80
2022/06/07 08:59:09;;;;;;;3.08;1.77;;;;;;;23.36;42.84;101079.97;4958501;28;20092;-78
2022/06/07 09:01:53;;;;;;;4.28;2.40;;;;;;;23.61;42.64;101090.94;4998315;28;20025;-81
2022/06/07 09:04:30;;;;;;;4.28;2.25;;;;;;;23.69;42.25;101088.91;4997980;28;20034;-80
2022/06/07 09:07:03;;;;;;;5.28;1.98;;;;;;;23.83;41.87;101078.34;4998868;28;20034;-81
2022/06/07 09:12:27;;;;;;;2.42;1.83;;;;;;;23.99;41.75;101088.59;4968485;28;20707;-80
2022/06/07 09:15:09;;;;;;;4.85;2.30;;;;;;;24.10;41.76;101098.69;4989854;28;20060;-78
2022/06/07 09:17:45;;;;;;;3.58;2.30;;;;;;;24.10;41.62;101099.50;5000849;28;20498;-79
2022/06/07 09:20:31;;;;;;;3.95;2.15;;;;;;;24.19;41.53;101097.44;4962877;28;20058;-79
2022/06/07 09:23:00;;;;;;;5.50;2.38;;;;;;;24.41;41.07;101093.63;4987717;28;20042;-82
2022/06/07 09:25:35;;;;;;;2.17;1.73;;;;;;;24.55;40.79;101094.44;4970141;28;20259;-82
2022/06/07 09:28:03;;;;;;;4.53;2.20;;;;;;;24.65;40.76;101094.06;4999552;28;20077;-83
2022/06/07 09:30:35;;;;;;;3.72;2.20;;;;;;;24.58;40.98;101102.03;4960469;28;20053;-82
2022/06/07 09:33:10;;;;;;;4.60;2.20;;;;;;;24.67;40.57;101098.16;4999465;28;20609;-80
2022/06/07 09:35:41;;;;;;;3.10;1.98;;;;;;;24.48;40.89;101074.19;4951301;28;20069;-78
2022/06/07 09:38:15;;;;;;;3.92;2.08;;;;;;;24.54;40.68;101076.03;4958127;28;20080;-84
2022/06/07 09:40:46;;;;;;;6.60;2.42;;;;;;;24.67;40.80;101107.97;4964013;28;20753;-81
2022/06/07 09:43:12;;;;;;;2.97;2.10;;;;;;;24.64;40.76;101111.06;5001432;28;20057;-82
2022/06/07 09:45:51;;;;;;;4.22;2.20;;;;;;;24.21;41.28;101090.09;4970169;28;20034;-84
2022/06/07 09:48:38;;;;;;;4.63;2.40;;;;;;;24.53;41.02;101120.47;4989334;28;20853;-83
2022/06/07 09:51:06;;;;;;;4.15;2.22;;;;;;;24.64;40.71;101114.53;4998917;28;20049;-82
2022/06/07 09:53:37;;;;;;;2.17;1.83;;;;;;;24.79;40.31;101111.66;4971179;28;20041;-80
2022/06/07 09:56:38;;;;;;;3.08;2.05;;;;;;;24.89;40.53;101109.41;4990198;28;20111;-79
2022/06/07 09:59:30;;;;;;;4.32;2.03;;;;;;;24.86;40.24;101095.69;5001078;28;20112;-80
2022/06/07 10:02:21;;;;;;;6.72;2.22;;;;;;;24.99;40.31;101109.84;4964398;28;20696;-80
2022/06/07 10:05:14;;;;;;;3.05;1.98;;;;;;;25.01;40.26;101120.28;5002727;28;20038;-80
2022/06/07 10:07:50;;;;;;;6.13;1.92;;;;;;;25.05;39.74;101110.84;4952151;28;20138;-79
2022/06/07 10:10:47;;;;;;;2.53;1.88;;;;;;;25.18;39.86;101121.50;4988494;28;20099;-79
2022/06/07 10:13:20;;;;;;;2.92;1.90;;;;;;;25.17;39.93;101108.38;4970379;28;20034;-80
2022/06/07 10:16:16;;;;;;;3.58;2.20;;;;;;;25.14;40.13;101112.28;4981003;28;20128;-80
2022/06/07 10:18:51;;;;;;;3.95;1.90;;;;;;;25.21;39.64;101130.91;4943060;28;20048;-80
2022/06/07 10:21:28;;;;;;;5.28;2.10;;;;;;;25.18;40.02;101120.66;4999607;28;20124;-80
2022/06/07 10:24:12;;;;;;;4.68;1.80;;;;;;;25.16;39.75;101123.53;4951786;28;20099;-78
2022/06/07 10:27:03;;;;;;;3.95;2.03;;;;;;;25.13;39.79;101120.44;5000718;28;20084;-80
2022/06/07 10:30:02;;;;;;;2.92;1.90;;;;;;;24.99;40.19;101106.31;4968041;28;20506;-80
2022/06/07 10:32:37;;;;;;;4.57;1.90;;;;;;;25.07;40.14;101124.78;4994159;28;20042;-78
2022/06/07 10:35:15;;;;;;;3.80;1.98;;;;;;;25.00;40.39;101137.28;4960906;28;20476;-78
2022/06/07 10:37:53;;;;;;;5.35;1.95;;;;;;;24.57;40.93;101134.19;4993187;28;20044;-78
2022/06/07 10:40:41;;;;;;;2.75;1.60;;;;;;;24.64;40.84;101140.34;4962396;28;20050;-78
2022/06/07 10:43:23;;;;;;;3.90;1.60;;;;;;;24.69;40.43;101116.56;4998091;28;20065;-79
2022/06/07 10:45:54;;;;;;;4.30;2.20;;;;;;;24.26;41.15;101111.59;4963421;28;20465;-78
2022/06/07 10:48:57;;;;;;;3.13;1.95;;;;;;;24.70;40.56;101145.66;4997831;28;20048;-80
2022/06/07 10:54:31;;;;;;;3.47;1.80;;;;;;;24.84;40.73;101149.16;4973237;28;20173;-81
2022/06/07 10:57:06;;;;;;;4.13;1.95;;;;;;;24.81;40.99;101146.91;4999454;28;20042;-80
2022/06/07 10:59:35;;;;;;;3.63;2.20;;;;;;;24.80;41.17;101145.28;4966072;28;20025;-80
2022/06/07 11:02:27;;;;;;;7.50;2.50;;;;;;;24.74;41.12;101138.06;4980399;28;20033;-81
2022/06/07 11:10:44;;;;;;;4.40;1.90;;;;;;;24.66;41.22;101146.28;4970911;28;20042;-80
2022/06/07 11:13:33;;;;;;;3.97;1.90;;;;;;;24.43;41.29;101109.41;4997030;28;20052;-80
2022/06/07 11:16:22;;;;;;;3.28;1.60;;;;;;;24.62;41.45;101140.56;4994001;28;20046;-80
2022/06/07 11:18:48;;;;;;;2.42;1.67;;;;;;;24.64;41.42;101153.66;4944176;28;20179;-80
2022/06/07 11:21:29;;;;;;;2.05;1.67;;;;;;;24.63;41.31;101144.84;4995954;28;20050;-80
2022/06/07 11:23:57;;;;;;;2.80;1.55;;;;;;;24.63;41.48;101144.03;4950530;28;20365;-81
2022/06/07 11:26:24;;;;;;;3.55;1.60;;;;;;;24.65;41.42;101147.31;4987308;28;20160;-81
2022/06/07 11:28:56;;;;;;;3.45;1.85;;;;;;;24.60;41.42;101149.78;4996209;28;20044;-82
2022/06/07 11:31:34;;;;;;;3.55;1.77;;;;;;;24.65;41.26;101153.44;4961870;28;20346;-80
2022/06/07 11:34:22;;;;;;;3.13;2.10;;;;;;;24.66;41.21;101159.59;4984584;28;20424;-82
2022/06/07 11:36:49;;;;;;;3.75;1.65;;;;;;;24.63;41.38;101149.34;4978878;28;20026;-82
2022/06/07 11:39:21;;;;;;;4.10;1.52;;;;;;;24.62;41.35;101163.69;4959116;28;20058;-82
2022/06/07 11:42:15;;;;;;;2.55;1.77;;;;;;;24.59;41.07;101153.44;4964415;28;20103;-81
2022/06/07 11:44:45;;;;;;;6.00;2.20;;;;;;;24.55;41.17;101174.31;4980211;28;20057;-80
2022/06/07 11:47:11;;;;;;;3.72;1.90;;;;;;;24.60;41.43;101165.75;4961203;28;20460;-80
2022/06/07 11:49:46;;;;;;;1.83;1.50;;;;;;;24.60;41.44;101163.09;4998419;28;20048;-80
2022/06/07 11:52:11;;;;;;;2.75;1.85;;;;;;;24.61;41.42;101178.03;4961424;28;20042;-80
2022/06/07 11:54:40;;;;;;;3.55;1.60;;;;;;;24.61;41.40;101168.22;4985651;28;20030;-80
2022/06/07 11:57:22;;;;;;;3.38;1.63;;;;;;;24.62;41.41;101166.34;4956396;28;20445;-80
2022/06/07 11:59:50;;;;;;;4.03;2.03;;;;;;;24.61;41.26;101168.22;4998279;28;20049;-80
2022/06/07 12:02:16;;;;;;;2.08;1.63;;;;;;;24.61;41.25;101164.72;4963486;28;20586;-80
2022/06/07 12:04:41;;;;;;;5.18;1.92;;;;;;;24.59;41.33;101175.53;5001968;28;20030;-79
2022/06/07 12:07:32;;;;;;;3.13;1.45;;;;;;;24.61;41.33;101175.38;4970236;28;20048;-80